Maersk Lirquen — VRKB8 — position and weather

sailwx.info

Track history (hours):
 
Tides and Currents Weather Stations Pressure Air Temp Water Temp Dewpoint Dewpoint Depression Visibility Wind Speed Wind Dir Waves Ship Positions

Maersk Lirquen

Last reported at 2014-Oct-27 21:15 UTC. Time now 2014-Nov-01 09:11 UTC.
Position S 34°35' W 058°22'.

Length 300 m; draft 9.8 m.

Type: Cargo ship. MMSI: 477423500.

Date/timePositionNaut miles runAvg speedWind from/ knotsBaromVisibWave heightAir tempDewpointWater temp
2014-Oct-27 21:15S 34°35' W 058°22'0 0.0
2014-Oct-27 20:27S 34°35' W 058°22'0 0.0
2014-Oct-27 18:30S 34°35' W 058°22'0 0.0
2014-Oct-27 16:09S 34°35' W 058°22'0 0.0
2014-Oct-27 15:33S 34°35' W 058°22'0 0.0
2014-Oct-27 14:30S 34°35' W 058°22'0 0.0
2014-Oct-27 12:24S 34°35' W 058°22'0 0.0
2014-Oct-27 11:21S 34°35' W 058°22'0 0.0
2014-Oct-27 10:12S 34°35' W 058°22'0 0.0
2014-Oct-27 09:33S 34°35' W 058°22'0 0.0
2014-Oct-27 08:27S 34°35' W 058°22'0 0.0
2014-Oct-27 06:27S 34°35' W 058°22'0 0.1
2014-Oct-27 05:33S 34°35' W 058°22'2 2.1
2014-Oct-27 04:33S 34°36' W 058°20'1010.3
2014-Oct-27 03:33S 34°38' W 058°07'1010.1
2014-Oct-27 02:34S 34°41' W 057°56'7 6.7
2014-Oct-27 01:34S 34°44' W 057°49'1212.5
2014-Oct-27 00:34S 34°46' W 057°34'4013.2
2014-Oct-26 21:33S 35°10' W 056°55'1713.1
2014-Oct-26 20:18S 35°10' W 056°35'30 3.8
2014-Oct-26 12:33S 35°04' W 055°59'0 0.1
2014-Oct-26 11:33S 35°04' W 055°59'0 0.0
2014-Oct-26 10:33S 35°04' W 055°59'0 0.0
2014-Oct-26 09:33S 35°04' W 055°59'0 0.0
2014-Oct-26 08:33S 35°04' W 055°59'16613.2
2014-Oct-25 20:00S 34°00' W 052°54'44614.6 070 / 111015.010.8 1.021.818.619.0
2014-Oct-24 13:28S 27°43' W 048°16'816.1
2014-Oct-24 13:00S 27°36' W 048°12'817.8 360 / 151017.210.8 1.024.018.526.0
2014-Oct-24 12:33S 27°29' W 048°16'1514.8
2014-Oct-24 11:34S 27°14' W 048°16'1413.9
2014-Oct-24 10:33S 27°02' W 048°22'  
2014-Oct-21 22:33S 24°08' W 046°23'1010.4
2014-Oct-21 21:33S 23°59' W 046°17'5 4.7
2014-Oct-21 20:31S 23°55' W 046°21'0 0.0
2014-Oct-21 19:28S 23°55' W 046°21'0 0.0
2014-Oct-21 18:10S 23°55' W 046°21'0 0.0
2014-Oct-21 17:10S 23°55' W 046°21'0 0.0
2014-Oct-21 09:25S 23°55' W 046°21'0 0.0
2014-Oct-21 08:28S 23°55' W 046°21'0 0.0
2014-Oct-21 06:22S 23°55' W 046°21'0 0.0
2014-Oct-20 21:19S 23°55' W 046°21'1 1.0
2014-Oct-20 20:33S 23°55' W 046°20'5 4.7
2014-Oct-20 19:34S 23°60' W 046°20'9 8.9
2014-Oct-20 18:33S 24°09' W 046°21'8 7.8
2014-Oct-20 17:28S 24°14' W 046°13'0 0.0
2014-Oct-20 08:19S 24°14' W 046°13'0 0.2
2014-Oct-20 07:22S 24°14' W 046°13'0 0.1
2014-Oct-20 05:28S 24°14' W 046°14'0 0.0
2014-Oct-20 04:29S 24°14' W 046°14'0 0.0
2014-Oct-20 03:33S 24°14' W 046°14'4 4.0
2014-Oct-20 02:34S 24°18' W 046°15'15520.5
2014-Oct-19 19:00S 23°42' W 043°30'53721.5 090 / 141006.4 5.4 0.524.021.323.0
2014-Oct-18 18:00S 17°30' W 036°36'5728.3 030 / 91015.410.8 1.025.221.925.0
2014-Oct-18 16:00S 16°36' W 036°18'6416.1 040 / 131015.4 0.530.022.729.0
2014-Oct-18 12:00S 15°36' W 035°54'23819.8 060 / 131018.110.8 2.026.019.929.0
2014-Oct-18 00:00S 12°00' W 034°12'   120 / 171017.710.8 2.025.120.430.0
Track history (hours):
 
Tides and Currents Weather Stations Pressure Air Temp Water Temp Dewpoint Dewpoint Depression Visibility Wind Speed Wind Dir Waves Ship Positions

Maersk Lirquen

Last reported at 2014-Oct-27 21:15 UTC. Time now 2014-Nov-01 09:11 UTC.
Position S 34°35' W 058°22'.

Length 300 m; draft 9.8 m.

Type: Cargo ship. MMSI: 477423500.

Date/timePositionNaut miles runAvg speedWind from/ knotsBaromVisibWave heightAir tempDewpointWater temp
2014-Oct-27 21:15S 34°35' W 058°22'0 0.0
2014-Oct-27 20:27S 34°35' W 058°22'0 0.0
2014-Oct-27 18:30S 34°35' W 058°22'0 0.0
2014-Oct-27 16:09S 34°35' W 058°22'0 0.0
2014-Oct-27 15:33S 34°35' W 058°22'0 0.0
2014-Oct-27 14:30S 34°35' W 058°22'0 0.0
2014-Oct-27 12:24S 34°35' W 058°22'0 0.0
2014-Oct-27 11:21S 34°35' W 058°22'0 0.0
2014-Oct-27 10:12S 34°35' W 058°22'0 0.0
2014-Oct-27 09:33S 34°35' W 058°22'0 0.0
2014-Oct-27 08:27S 34°35' W 058°22'0 0.0
2014-Oct-27 06:27S 34°35' W 058°22'0 0.1
2014-Oct-27 05:33S 34°35' W 058°22'2 2.1
2014-Oct-27 04:33S 34°36' W 058°20'1010.3
2014-Oct-27 03:33S 34°38' W 058°07'1010.1
2014-Oct-27 02:34S 34°41' W 057°56'7 6.7
2014-Oct-27 01:34S 34°44' W 057°49'1212.5
2014-Oct-27 00:34S 34°46' W 057°34'4013.2
2014-Oct-26 21:33S 35°10' W 056°55'1713.1
2014-Oct-26 20:18S 35°10' W 056°35'30 3.8
2014-Oct-26 12:33S 35°04' W 055°59'0 0.1
2014-Oct-26 11:33S 35°04' W 055°59'0 0.0
2014-Oct-26 10:33S 35°04' W 055°59'0 0.0
2014-Oct-26 09:33S 35°04' W 055°59'0 0.0
2014-Oct-26 08:33S 35°04' W 055°59'16613.2
2014-Oct-25 20:00S 34°00' W 052°54'44614.6 070 / 111015.010.8 1.021.818.619.0
2014-Oct-24 13:28S 27°43' W 048°16'816.1
2014-Oct-24 13:00S 27°36' W 048°12'817.8 360 / 151017.210.8 1.024.018.526.0
2014-Oct-24 12:33S 27°29' W 048°16'1514.8
2014-Oct-24 11:34S 27°14' W 048°16'1413.9
2014-Oct-24 10:33S 27°02' W 048°22'  
2014-Oct-21 22:33S 24°08' W 046°23'1010.4
2014-Oct-21 21:33S 23°59' W 046°17'5 4.7
2014-Oct-21 20:31S 23°55' W 046°21'0 0.0
2014-Oct-21 19:28S 23°55' W 046°21'0 0.0
2014-Oct-21 18:10S 23°55' W 046°21'0 0.0
2014-Oct-21 17:10S 23°55' W 046°21'0 0.0
2014-Oct-21 09:25S 23°55' W 046°21'0 0.0
2014-Oct-21 08:28S 23°55' W 046°21'0 0.0
2014-Oct-21 06:22S 23°55' W 046°21'0 0.0
2014-Oct-20 21:19S 23°55' W 046°21'1 1.0
2014-Oct-20 20:33S 23°55' W 046°20'5 4.7
2014-Oct-20 19:34S 23°60' W 046°20'9 8.9
2014-Oct-20 18:33S 24°09' W 046°21'8 7.8
2014-Oct-20 17:28S 24°14' W 046°13'0 0.0
2014-Oct-20 08:19S 24°14' W 046°13'0 0.2
2014-Oct-20 07:22S 24°14' W 046°13'0 0.1
2014-Oct-20 05:28S 24°14' W 046°14'0 0.0
2014-Oct-20 04:29S 24°14' W 046°14'0 0.0
2014-Oct-20 03:33S 24°14' W 046°14'4 4.0
2014-Oct-20 02:34S 24°18' W 046°15'15520.5
2014-Oct-19 19:00S 23°42' W 043°30'53721.5 090 / 141006.4 5.4 0.524.021.323.0
2014-Oct-18 18:00S 17°30' W 036°36'5728.3 030 / 91015.410.8 1.025.221.925.0
2014-Oct-18 16:00S 16°36' W 036°18'6416.1 040 / 131015.4 0.530.022.729.0
2014-Oct-18 12:00S 15°36' W 035°54'23819.8 060 / 131018.110.8 2.026.019.929.0
2014-Oct-18 00:00S 12°00' W 034°12'   120 / 171017.710.8 2.025.120.430.0

Dump ship's entire track history